Timeline UpdatesTrip UpdatesNews PostsPvt PostsTravel TipsAdmin PostsConv PostsFollowed PostsChat RequestsBlog PostsPNR Posts

Disclaimer
Search
 
 
Wed Jul 30, 2014 02:26:25 ISTHomeTrainsΣChainsAtlasPNRForumGalleryNewsFAQTripsMembersLoginFeedback
No Recent News for this Train
Other Trains in the News **new
Latest...
Attached to 16787 @ ED, Runs Together between ED-JAT
Wed Dec 04, 2013 (07:01PM)
⇐ Return Journey: Train# 16318

16317/Himsagar Express

Jan 01 2014 (10:25PM)
Change Departure Station:
Change Arrival Station:
Post a Train Travel TipPost a Train Travel Tip **new
Post a Comment/Question/Picture/VideoPost a Comment/Question/Picture/Video
Pantry/Catering
✓ Pantry Car Avbl
✓ Catering Avbl
RSA - Rake Sharing
Rake/Coach Composition
Loco-SLR*-GEN*-A1*-S10*-S9*-S8*-S7*-PC-S6-S5-S4-S3-S2-S1-B2-B1-GEN-GEN-SLR; * Denotes the TEN-JAT slip (16787) attached @ED
Loco
CAPE to NDLS - RPM WAP 4 NDLS to JAT -...
Read more...
TKD WDM 3A
News    PNR    Forum    Time-Table    Availability    Fare Chart    Map    Arr/Dep History    Trips    Gallery    ΣChains    X/O    Timeline    
Travel Time: 51h 35m    46 halts    Distance: 2730 km    Avg Speed: 52 km/hr
Type: Mail/Express
Zone: SR/Southern
Departs @ 09:35 (Avg 8m late)
Platform# ???
      S
Tirupati Main/TPTY 
Arrives @ 13:10 +2 nights (Avg 15m late)
Platform# 2
 M     
Jammu Tawi/JAT 

46 halts. 401 intermediate Stations between Tirupati Main and Jammu Tawi

Show ALL intermediate Stations  Show Old Time-Table

#CodeStation NameX/OArrivesAvgDepartsAvgHaltPFDay#KmSpeedElevZoneAddress
1CAPEKanniyakumari (3)  -14:00+021-980.94738mSRKanyakumari, Tamil Nadu
2NCJNagercoil Junction (4)  14:20-114:25+05m11-965.46822mSRNagercoil-629002, Tamil Nadu
3KZTKulitturai  14:54+314:55+41m--1-932.34129mSRMarthandam, Tamil Nadu
4TVCTrivandrum Central (5)  15:50-216:00+310m31-894.37012mSRThiruvananthapuram 695001, Kerala
5QLNKollam Junction (6)X  16:55+1817:00+195m21-829.76116mSRKollam 0474-2746194, Kerala
6KYJKayamkulam Junction (5)X  17:40+1817:42+182m--1-788.94711mSRAlappuzha Ph;0479-2442042, Kerala
7CNGRChengannur (3)  18:08+1318:10+152m31-768.7686mSRPh: 0479-2452340, Kerala
8TRVLTiruvalla (2)X  18:18+1918:20+212m--1-759.63927mSRPh: 0469-2601314, Kerala
9KTYMKottayam (3)X  19:00+2119:05+255m--1-733.94015mSRTel: 0481 2563535, Kerala
10ERNErnakulam Town (North) (2)O  20:35+2120:40+285m11-673.9349mSRTel: 0484 2395198, Kerala
11AWYAluva (3)  21:10+2121:12+212m--1-657.15612mSRPh: 0484-2624141, Kerala
12TCRThrissur (4)  22:10+2122:13+243m21-602.5356mSRThrissur Tel: 0487 2423150, Kerala
13OTPOttappalam (2)  23:28+623:30+72m--1-558.45430mSROttapalam, Kerala
14PGTPalakkad Junction (4)  00:05-200:10+45m32-527.04884mSRPalghat Tel: 0491 2555231, Kerala
15CBECoimbatore Main Junction (6)X  01:20+1101:25+125m22-471.271416mSRCoimbatore 641001, Tamil Nadu
16TUPTiruppur (2)X  02:08+1402:10+142m22-420.640305mSRTiruppur. Ph:0421-2200450, Tamil Nadu
17EDErode Junction (4)X03:25-103:35+1210m12-370.782175mSRErode ph.no: 0424-2256111, Tamil Nadu
18SASalem Junction (6)X  04:20+2304:25+225m--2-309.070283mSRSalem, Tamil Nadu
19JTJJolarpettai Junction (5)  06:08+1906:10+212m--2-188.869405mSRJolarpettai, Tamil Nadu
20KPDKatpadi Junction (5)  07:23+1207:25+132m32-105.047213mSRVellore 632007, Tamil Nadu
21CTOChittoor (3)X  08:07+2008:08+211m--2-71.951305mSCR517001., Andhra Pradesh
22TPTY»Tirupati Main (5)»  09:33+509:35+82m--20.040150mSCRChittoor Distt, Andhra Pradesh
23RURenigunta Junction (5)  09:50+1410:00+1910m--29.951113mSCRChittoor District, Andhra Pradesh
24GDRGudur Junction (3)  11:39+911:48+109m2293.3-19mSCRGudur, Andhra Pradesh
25NLRNellore (4)  11:50+3911:51+401m22131.88121mSCRNellore, Andhra Pradesh
26OGLOngole (3)  13:18+4913:19+501m12248.56212mSCROngole, Andhra Pradesh
27TELTenali Junction (5)  15:02+1:0515:04+1:052m42355.52816mSCRTel: 08644-227834, Andhra Pradesh
28BZAVijayawada Junction (10)  16:11+2816:26+2815m--2386.89424mSCRVijayawada 520001, Andhra Pradesh
29KMTKhammam (2)  17:30+3617:32+362m22487.250118mSCRKhammam 507001, Telangana
30WLWarangal (3)  19:40+1519:45+135m22594.777271mSCRWarangal., Telangana
31RDMRamagundam (3)X  21:04+1621:06+172m12695.959170mSCRKarimnagar Dist. Ph : 08728 - 255237, Telangana
32BPQBalharshah Junction (5)  23:30+923:40+910m--2837.755188mCRBallarpur. Ph : 07172 - 240341, Maharashtra
33CDChandrapur Maharashtra (3)  23:55+1523:57+152m--2851.573194mCRChandrapur 442401, Maharashtra
34SEGMSewagram Junction (5)  01:35+1801:36+201m--3970.066279mCRWardha, Maharashtra
35NGPNagpur Junction (8)  02:45+1502:55+1810m131046.366314mCRNagpur 440001, Maharashtra
36ETItarsi Junction (7)X  07:25+2307:30+315m--31343.452329mWCRItarsi 461111, Madhya Pradesh
37BPLBhopal Junction (6)O  09:15+3909:20+425m--31435.162497mWCRBhopal, Madhya Pradesh
38JHSJhansi Junction (7)XO  14:02+2614:10+318m--31726.973259mNCRJhansi, Uttar Pradesh
39GWLGwalior Junction (4)X  15:30+3915:35+385m231824.683214mNCRGwalior, Madhya Pradesh
40DHODholpur Junction (3)X  16:22+3916:24+382m131890.052177mNCRDholpur, Rajasthan
41AGCAgra Cantt. (6)  17:25+3017:30+335m231942.667174mNCRAgra, Uttar Pradesh
42FDBFaridabad (4)  20:00+3120:01+321m232109.532206mNRold Faridabad, Haryana
43NZMDelhi Hazrat Nizamuddin (7)XO  20:40+2821:10+2430m232130.315209mNRNizamuddin East/Sarai KaleKhan Bus Terminal, Delhi NCT
44NDLSNew Delhi (16)21:40+3000:10+0150m532137.621215mNRNew Delhi, Delhi NCT
45SSBShakur Basti  00:41+500:42+61m--42148.563216mNRPitampura, Delhi NCT
46BGZBahadurgarh  01:01+901:02+101m--42168.473220mNRBahadurgarh, Haryana
47ROKRohtak Junction (3)  01:35+1801:40+175m--42208.762220mNRRohtak, Haryana
48JINDJind Junction (3)  02:35+1002:40+105m--42265.878222mNR126102., Haryana
49NRWNarwana Junction (4)  03:06+1603:07+171m--42299.773235mNRWay to Narwana, Haryana
50TUNTohana (2)X  03:28+1003:29+101m--42325.220232mNRTohana, Haryana
51JHLJakhal JunctionO  04:05-104:10+05m--42337.485225mNRJakhal, Haryana
52LHALehra Gaga (1)  04:22+2004:24+202m142354.471227mNRSangrur, Punjab
53SFMSunam (1)O  04:42+2204:44+222m142375.764235mNRSunam, Punjab
54SAGSangrur (2)X  04:56+2204:58+222m242388.430239mNRSangrur, Punjab
55DUIDhuri Junction (4)  05:30+1205:35+105m--42404.578248mNRDhuri, Punjab
56METMalerkotla (2)XO  05:48+1505:50+152m--42421.370248mNRMalerkotla., Punjab
57AHHAhmadgarh (1)X  06:07+1406:09+142m142441.127256mNRAhmedgarh, Punjab
58QRPKila Raipur (1)  06:26+606:28+62m142448.848262mNRDelhon Pakhowal Rd, Punjab
59LDHLudhiana Junction (7)X  06:50+2207:00+5210m442466.634246mNRLudhiana 141001, Punjab
60PHRPhillaur Junction (3)X  07:23+4707:25+472m242479.675246mNRPhillaur, Punjab
61PGWPhagwara Junction (3)X  07:43+5507:45+562m242502.265245mNRPhagwara, Punjab
62JRCJalandhar Cantt. Junction (3)O  08:00+5208:05+545m342518.563239mNRNear Rama Mandi, Punjab
63TDOTanda Urmar (3)  08:45+1:0008:47+1:002m142560.866239mNRUrmar Tanda, Punjab
64DZADasuya (2)  09:01+1:0109:03+1:012m242576.156251mNRDasuya distt. hoshiarpur, Punjab
65MEXMukerian (3)X  09:19+1:0109:21+1:012m242591.235257mNRMukerian distt. hosiharpur, Punjab
66PTKCPathankot Cantt (3)X  10:30+3410:35+385m242631.032328mNRPathankot By Pass Ph:0186-2251594, Punjab
67KTHUKathua (2)X  11:19+3111:21+312m142654.161396mNRdistt. kathua, Jammu and Kashmir
68SMBXSamba (2)O  12:04+2712:05+281m242697.830365mNRDist. Samba, Jammu and Kashmir
69JAT•Jammu Tawi (3)•  13:10+15-242730.4-337mNRJammu 180002, Jammu and Kashmir
Scroll to Top
Scroll to Bottom